Time;durP1;ratioP1;P1;durP2;ratioP2;P2;SDS_P1;SDS_P2;PMS_P1;PMS_P2;Temp;Humidity;BMP_temperature;BMP_pressure;BME280_temperature;BME280_humidity;BME280_pressure;Samples;Min_cycle;Max_cycle;Signal;HPM_P1;HPM_P2
2023/04/11 00:00:21;;;;;;;2.00;1.90;;;;;;;;;;5078574;28;20430;-76
2023/04/11 00:02:53;;;;;;;2.57;2.00;;;;;;;;;;5077569;28;20517;-77
2023/04/11 00:05:34;;;;;;;2.20;2.00;;;;;;;;;;5074888;28;20448;-76
2023/04/11 00:08:16;;;;;;;2.43;2.23;;;;;;;;;;5074835;28;20445;-76
2023/04/11 00:10:56;;;;;;;2.30;2.10;;;;;;;;;;5075417;28;20473;-76
2023/04/11 00:13:25;;;;;;;3.37;2.13;;;;;;;;;;5076234;28;20516;-76
2023/04/11 00:16:02;;;;;;;1.90;1.80;;;;;;;;;;5075151;28;20521;-77
2023/04/11 00:18:38;;;;;;;2.73;1.80;;;;;;;;;;5075152;28;20469;-77
2023/04/11 00:21:11;;;;;;;3.20;1.90;;;;;;;;;;5075211;28;20484;-76
2023/04/11 00:23:47;;;;;;;2.53;2.33;;;;;;;;;;5073664;28;20440;-77
2023/04/11 00:26:23;;;;;;;1.80;1.70;;;;;;;;;;5073936;28;20528;-77
2023/04/11 00:28:57;;;;;;;2.13;2.03;;;;;;;;;;5073366;28;20473;-76
2023/04/11 00:31:39;;;;;;;2.03;1.70;;;;;;;;;;5070149;28;20450;-77
2023/04/11 00:34:08;;;;;;;2.30;2.10;;;;;;;;;;5067678;28;20460;-77
2023/04/11 00:36:44;;;;;;;2.37;2.17;;;;;;;;;;5068241;28;20469;-76
2023/04/11 00:39:17;;;;;;;1.97;1.87;;;;;;;;;;5063303;28;20441;-77
2023/04/11 00:42:12;;;;;;;2.77;2.10;;;;;;;;;;5064604;28;20480;-77
2023/04/11 00:44:56;;;;;;;2.00;1.90;;;;;;;;;;5063916;28;20454;-77
2023/04/11 00:47:30;;;;;;;2.20;2.00;;;;;;;;;;5062307;28;20469;-77
2023/04/11 00:50:22;;;;;;;;;;;;;;;;;;;;;
2023/04/11 00:53:07;;;;;;;2.10;2.00;;;;;;;;;;5062373;28;20441;-77
2023/04/11 00:55:44;;;;;;;2.53;2.17;;;;;;;;;;5065235;28;20452;-78
2023/04/11 00:58:36;;;;;;;2.37;2.17;;;;;;;;;;5064218;28;20518;-77
2023/04/11 01:01:16;;;;;;;2.30;2.20;;;;;;;;;;5061809;28;20445;-76
2023/04/11 01:03:50;;;;;;;2.30;2.00;;;;;;;;;;5060090;28;20473;-77
2023/04/11 01:06:22;;;;;;;4.00;2.27;;;;;;;;;;5058639;28;20469;-78
2023/04/11 01:08:51;;;;;;;2.47;2.27;;;;;;;;;;5059955;28;20449;-76
2023/04/11 01:11:20;;;;;;;2.13;2.03;;;;;;;;;;5061517;28;20479;-76
2023/04/11 01:13:51;;;;;;;3.00;2.37;;;;;;;;;;5063195;28;20457;-75
2023/04/11 01:16:24;;;;;;;2.10;2.00;;;;;;;;;;5062546;28;20477;-77
2023/04/11 01:18:56;;;;;;;7.93;2.00;;;;;;;;;;5059445;28;20448;-77
2023/04/11 01:21:28;;;;;;;1.93;1.80;;;;;;;;;;5058418;28;20542;-76
2023/04/11 01:24:02;;;;;;;3.20;2.37;;;;;;;;;;5057300;28;21015;-77
2023/04/11 01:26:35;;;;;;;2.47;2.27;;;;;;;;;;5056247;28;20449;-77
2023/04/11 01:32:07;;;;;;;2.50;2.30;;;;;;;;;;5024630;28;21122;-76
2023/04/11 01:34:50;;;;;;;2.00;1.80;;;;;;;;;;5056442;28;20453;-76
2023/04/11 01:37:25;;;;;;;2.37;2.17;;;;;;;;;;5056542;28;20559;-77
2023/04/11 01:40:10;;;;;;;3.57;2.40;;;;;;;;;;5056731;28;21050;-77
2023/04/11 01:42:57;;;;;;;;;;;;;;;;;;;;;
2023/04/11 01:45:56;;;;;;;2.40;2.10;;;;;;;;;;5058580;28;20793;-75
2023/04/11 01:48:31;;;;;;;1.97;1.87;;;;;;;;;;5061627;28;20457;-76
2023/04/11 01:51:14;;;;;;;2.80;2.43;;;;;;;;;;5064902;28;20476;-77
2023/04/11 01:53:55;;;;;;;2.60;2.43;;;;;;;;;;5061915;28;20944;-77
2023/04/11 01:56:29;;;;;;;2.00;1.90;;;;;;;;;;5058394;28;20465;-77
2023/04/11 01:59:03;;;;;;;3.13;2.60;;;;;;;;;;5059711;28;20463;-76
2023/04/11 02:01:37;;;;;;;2.50;2.30;;;;;;;;;;5063491;28;20456;-76
2023/04/11 02:04:06;;;;;;;2.53;2.33;;;;;;;;;;5061287;28;20876;-76
2023/04/11 02:06:37;;;;;;;1.97;1.87;;;;;;;;;;5060422;28;20842;-76
2023/04/11 02:09:13;;;;;;;2.40;2.20;;;;;;;;;;5060075;28;20824;-76
2023/04/11 02:11:59;;;;;;;3.13;2.23;;;;;;;;;;5059961;28;20453;-77
2023/04/11 02:14:28;;;;;;;3.43;2.70;;;;;;;;;;5062313;28;20457;-77
2023/04/11 02:16:58;;;;;;;1.93;1.83;;;;;;;;;;5062842;28;20488;-77
2023/04/11 02:22:14;;;;;;;1.73;1.63;;;;;;;;;;5056803;28;20460;-77
2023/04/11 02:24:46;;;;;;;1.93;1.40;;;;;;;;;;5060304;28;20469;-76
2023/04/11 02:27:22;;;;;;;1.30;1.20;;;;;;;;;;5060685;28;20466;-77
2023/04/11 02:30:05;;;;;;;1.20;1.20;;;;;;;;;;5060781;28;20477;-77
2023/04/11 02:32:45;;;;;;;1.20;1.10;;;;;;;;;;5059732;28;20449;-75
2023/04/11 02:38:19;;;;;;;1.23;1.13;;;;;;;;;;5012897;28;20505;-76
2023/04/11 02:44:04;;;;;;;0.90;0.90;;;;;;;;;;5054611;28;20953;-76
2023/04/11 02:46:40;;;;;;;2.50;1.17;;;;;;;;;;5059877;28;20568;-75
2023/04/11 02:49:18;;;;;;;1.50;1.40;;;;;;;;;;5059446;28;20469;-76
2023/04/11 02:52:01;;;;;;;1.53;0.80;;;;;;;;;;5058495;28;20441;-75
2023/04/11 02:54:40;;;;;;;0.70;0.70;;;;;;;;;;5061057;28;20449;-77
2023/04/11 02:57:14;;;;;;;1.47;1.07;;;;;;;;;;5060930;28;20482;-76
2023/04/11 02:59:51;;;;;;;0.93;0.93;;;;;;;;;;5059240;28;20461;-77
2023/04/11 03:02:28;;;;;;;1.20;1.10;;;;;;;;;;5060399;28;20472;-76
2023/04/11 03:05:07;;;;;;;3.73;1.10;;;;;;;;;;5051075;28;20451;-77
2023/04/11 03:07:42;;;;;;;1.37;0.90;;;;;;;;;;5041428;28;20466;-77
2023/04/11 03:10:16;;;;;;;2.53;0.90;;;;;;;;;;5042989;28;20524;-77
2023/04/11 03:12:48;;;;;;;2.97;1.20;;;;;;;;;;5044416;28;20519;-77
2023/04/11 03:15:18;;;;;;;1.23;0.90;;;;;;;;;;5042863;28;20465;-76
2023/04/11 03:17:48;;;;;;;1.20;0.90;;;;;;;;;;5040393;28;20450;-76
2023/04/11 03:20:19;;;;;;;2.10;0.93;;;;;;;;;;5040752;28;20496;-75
2023/04/11 03:22:48;;;;;;;2.43;1.20;;;;;;;;;;5040074;28;20504;-76
2023/04/11 03:25:26;;;;;;;1.53;1.30;;;;;;;;;;5041190;28;20489;-75
2023/04/11 03:28:08;;;;;;;1.90;1.17;;;;;;;;;;5042127;28;20445;-74
2023/04/11 03:30:39;;;;;;;1.30;0.80;;;;;;;;;;5041198;28;20581;-77
2023/04/11 03:33:18;;;;;;;2.30;1.20;;;;;;;;;;5039139;28;20474;-74
2023/04/11 03:35:54;;;;;;;2.37;1.40;;;;;;;;;;5037487;28;20473;-75
2023/04/11 03:41:33;;;;;;;1.63;1.53;;;;;;;;;;5038732;28;20427;-76
2023/04/11 03:44:04;;;;;;;2.70;1.50;;;;;;;;;;5038948;28;20461;-76
2023/04/11 03:46:36;;;;;;;2.83;1.30;;;;;;;;;;5038597;28;20570;-76
2023/04/11 03:49:12;;;;;;;1.13;1.00;;;;;;;;;;5038252;28;20455;-77
2023/04/11 03:51:51;;;;;;;1.70;1.53;;;;;;;;;;5038841;28;20463;-76
2023/04/11 03:54:25;;;;;;;1.23;1.00;;;;;;;;;;5038532;28;20446;-77
2023/04/11 03:57:00;;;;;;;2.27;1.40;;;;;;;;;;5037012;28;20520;-77
2023/04/11 03:59:28;;;;;;;4.67;1.70;;;;;;;;;;5037128;28;20450;-75
2023/04/11 04:02:07;;;;;;;1.40;1.30;;;;;;;;;;5036713;28;20490;-76
2023/04/11 04:04:54;;;;;;;1.60;1.50;;;;;;;;;;5036634;28;20434;-76
2023/04/11 04:07:22;;;;;;;2.97;1.50;;;;;;;;;;5038116;28;21016;-77
2023/04/11 04:09:59;;;;;;;3.37;1.37;;;;;;;;;;5040350;28;20537;-75
2023/04/11 04:12:30;;;;;;;3.50;1.60;;;;;;;;;;5040683;28;20462;-76
2023/04/11 04:15:04;;;;;;;1.37;1.20;;;;;;;;;;5039559;28;20514;-76
2023/04/11 04:17:33;;;;;;;2.20;1.40;;;;;;;;;;5038641;28;20443;-76
2023/04/11 04:20:09;;;;;;;1.50;1.37;;;;;;;;;;5038918;28;20435;-77
2023/04/11 04:22:56;;;;;;;6.30;2.30;;;;;;;;;;5041288;28;20450;-76
2023/04/11 04:25:27;;;;;;;3.63;1.40;;;;;;;;;;5049268;28;20494;-75
2023/04/11 04:27:59;;;;;;;1.80;1.43;;;;;;;;;;5054903;28;20441;-76
2023/04/11 04:30:37;;;;;;;3.57;1.40;;;;;;;;;;5054618;28;20474;-76
2023/04/11 04:33:11;;;;;;;3.10;1.37;;;;;;;;;;5038832;28;20441;-76
2023/04/11 04:35:45;;;;;;;3.00;2.10;;;;;;;;;;5057543;28;20447;-76
2023/04/11 04:38:19;;;;;;;3.03;1.60;;;;;;;;;;5057922;28;20448;-76
2023/04/11 04:40:48;;;;;;;1.20;1.10;;;;;;;;;;5058484;28;20438;-76
2023/04/11 04:43:18;;;;;;;2.93;1.37;;;;;;;;;;5057354;28;20437;-76
2023/04/11 04:45:55;;;;;;;2.00;1.80;;;;;;;;;;5054708;28;20467;-76
2023/04/11 04:48:25;;;;;;;2.23;1.20;;;;;;;;;;5033411;28;20454;-76
2023/04/11 04:50:59;;;;;;;4.53;1.30;;;;;;;;;;5032634;28;20474;-76
2023/04/11 04:53:33;;;;;;;1.30;1.20;;;;;;;;;;5031943;28;20825;-76
2023/04/11 04:56:04;;;;;;;1.23;1.13;;;;;;;;;;5033015;28;21039;-74
2023/04/11 04:58:33;;;;;;;2.17;1.20;;;;;;;;;;5032693;28;20964;-76
2023/04/11 05:01:04;;;;;;;1.27;1.10;;;;;;;;;;5032242;28;20485;-77
2023/04/11 05:03:58;;;;;;;3.30;1.20;;;;;;;;;;5032184;28;20453;-76
2023/04/11 05:06:38;;;;;;;2.73;1.20;;;;;;;;;;5028229;28;20481;-77
2023/04/11 05:09:09;;;;;;;1.07;1.07;;;;;;;;;;5031489;28;20504;-76
2023/04/11 05:11:37;;;;;;;6.00;1.50;;;;;;;;;;5031322;28;20507;-75
2023/04/11 05:14:10;;;;;;;1.60;1.30;;;;;;;;;;5032894;28;20486;-76
2023/04/11 05:16:42;;;;;;;1.00;0.90;;;;;;;;;;5037950;28;20474;-75
2023/04/11 05:19:10;;;;;;;0.97;0.83;;;;;;;;;;5061095;28;20448;-76
2023/04/11 05:21:43;;;;;;;1.70;1.20;;;;;;;;;;5065037;28;20499;-76
2023/04/11 05:24:11;;;;;;;2.40;1.00;;;;;;;;;;5064540;28;20540;-75
2023/04/11 05:26:41;;;;;;;1.70;1.13;;;;;;;;;;5067669;28;20496;-75
2023/04/11 05:29:12;;;;;;;3.63;1.63;;;;;;;;;;5068913;28;20429;-74
2023/04/11 05:31:48;;;;;;;1.00;1.00;;;;;;;;;;5070106;28;20497;-75
2023/04/11 05:37:09;;;;;;;1.47;1.10;;;;;;;;;;5061634;28;20465;-76
2023/04/11 05:42:27;;;;;;;1.90;1.20;;;;;;;;;;5066216;28;20512;-77
2023/04/11 05:44:59;;;;;;;1.33;1.20;;;;;;;;;;5067497;28;20467;-75
2023/04/11 05:47:32;;;;;;;1.40;0.83;;;;;;;;;;5065352;28;20495;-75
2023/04/11 05:50:15;;;;;;;3.27;1.50;;;;;;;;;;5067081;28;20526;-75
2023/04/11 05:53:08;;;;;;;1.60;1.17;;;;;;;;;;5066920;28;20560;-75
2023/04/11 05:55:41;;;;;;;1.77;1.30;;;;;;;;;;5010776;28;20451;-76
2023/04/11 05:58:18;;;;;;;2.20;1.10;;;;;;;;;;5068380;28;20862;-75
2023/04/11 06:00:52;;;;;;;1.27;1.17;;;;;;;;;;5067127;28;20441;-76
2023/04/11 06:03:22;;;;;;;1.03;1.03;;;;;;;;;;5067810;28;20445;-77
2023/04/11 06:06:11;;;;;;;1.17;1.10;;;;;;;;;;5067427;28;20484;-77
2023/04/11 06:08:46;;;;;;;3.30;1.07;;;;;;;;;;5068510;28;20503;-76
2023/04/11 06:11:37;;;;;;;1.70;1.30;;;;;;;;;;5068481;28;20495;-77
2023/04/11 06:14:28;;;;;;;2.93;1.10;;;;;;;;;;5069036;28;20465;-76
2023/04/11 06:17:09;;;;;;;4.33;1.50;;;;;;;;;;5068265;28;20461;-76
2023/04/11 06:19:41;;;;;;;3.63;1.20;;;;;;;;;;5064566;28;20445;-76
2023/04/11 06:22:09;;;;;;;1.53;1.40;;;;;;;;;;5066431;28;20644;-75
2023/04/11 06:24:48;;;;;;;2.57;1.73;;;;;;;;;;5065546;28;20523;-76
2023/04/11 06:27:25;;;;;;;1.57;1.30;;;;;;;;;;5064938;28;20500;-76
2023/04/11 06:29:56;;;;;;;0.87;0.87;;;;;;;;;;5063165;28;20463;-77
2023/04/11 06:32:25;;;;;;;1.67;1.27;;;;;;;;;;5062441;28;20867;-76
2023/04/11 06:34:59;;;;;;;1.83;1.27;;;;;;;;;;5061280;28;20553;-75
2023/04/11 06:37:26;;;;;;;2.10;1.40;;;;;;;;;;5060882;28;20476;-77
2023/04/11 06:39:54;;;;;;;4.63;1.40;;;;;;;;;;5060199;28;20430;-77
2023/04/11 06:42:24;;;;;;;2.33;1.50;;;;;;;;;;5059887;28;20595;-77
2023/04/11 06:44:55;;;;;;;4.07;1.40;;;;;;;;;;5060804;28;20464;-75
2023/04/11 06:47:23;;;;;;;3.30;1.50;;;;;;;;;;5059991;28;20801;-76
2023/04/11 06:50:01;;;;;;;1.73;1.43;;;;;;;;;;5059560;28;20476;-76
2023/04/11 06:52:30;;;;;;;4.30;1.33;;;;;;;;;;5058305;28;20540;-77
2023/04/11 06:55:02;;;;;;;2.07;1.20;;;;;;;;;;5058804;28;20457;-76
2023/04/11 06:57:35;;;;;;;2.53;1.20;;;;;;;;;;5060489;28;20484;-76
2023/04/11 07:00:14;;;;;;;5.37;1.63;;;;;;;;;;5058911;28;21004;-76
2023/04/11 07:02:44;;;;;;;6.33;1.37;;;;;;;;;;5058869;28;20454;-77
2023/04/11 07:05:16;;;;;;;1.30;1.20;;;;;;;;;;5057067;28;20474;-77
2023/04/11 07:07:49;;;;;;;1.23;1.13;;;;;;;;;;5056883;28;20477;-76
2023/04/11 07:10:23;;;;;;;2.03;1.27;;;;;;;;;;5056151;28;20466;-75
2023/04/11 07:13:00;;;;;;;1.07;1.00;;;;;;;;;;5055628;28;20480;-77
2023/04/11 07:15:33;;;;;;;2.80;1.30;;;;;;;;;;5052904;28;20466;-76
2023/04/11 07:18:04;;;;;;;2.17;1.27;;;;;;;;;;5043465;28;20449;-76
2023/04/11 07:20:37;;;;;;;2.37;1.27;;;;;;;;;;5041027;28;20476;-76
2023/04/11 07:23:08;;;;;;;4.30;1.30;;;;;;;;;;5032659;28;20509;-76
2023/04/11 07:25:41;;;;;;;5.20;1.27;;;;;;;;;;5034745;28;20522;-78
2023/04/11 07:28:14;;;;;;;1.90;1.23;;;;;;;;;;5034548;28;21124;-76
2023/04/11 07:30:47;;;;;;;4.67;1.43;;;;;;;;;;5035106;28;20481;-77
2023/04/11 07:33:18;;;;;;;4.47;1.90;;;;;;;;;;5034956;28;20450;-76
2023/04/11 07:35:46;;;;;;;2.23;1.50;;;;;;;;;;5034854;28;20482;-76
2023/04/11 07:38:15;;;;;;;4.63;1.37;;;;;;;;;;5035971;28;20461;-76
2023/04/11 07:40:45;;;;;;;1.23;1.13;;;;;;;;;;5037487;28;20430;-76
2023/04/11 07:43:14;;;;;;;1.73;1.10;;;;;;;;;;5036456;28;20905;-76
2023/04/11 07:45:41;;;;;;;8.27;1.60;;;;;;;;;;5033014;28;20524;-76
2023/04/11 07:48:10;;;;;;;3.00;1.57;;;;;;;;;;5033953;28;20533;-78
2023/04/11 07:50:38;;;;;;;3.37;1.60;;;;;;;;;;5033586;28;20593;-79
2023/04/11 07:53:06;;;;;;;3.67;1.60;;;;;;;;;;5033656;28;20478;-77
2023/04/11 07:55:36;;;;;;;8.50;1.83;;;;;;;;;;5046182;28;20451;-76
2023/04/11 07:58:07;;;;;;;2.57;1.77;;;;;;;;;;5044462;28;20474;-77
2023/04/11 08:00:37;;;;;;;5.00;1.70;;;;;;;;;;5044964;28;20461;-76
2023/04/11 08:03:07;;;;;;;2.43;1.37;;;;;;;;;;5046441;28;20443;-77
2023/04/11 08:05:38;;;;;;;2.70;1.93;;;;;;;;;;5047742;28;20502;-77
2023/04/11 08:08:05;;;;;;;5.23;2.23;;;;;;;;;;5044207;28;20966;-78
2023/04/11 08:10:33;;;;;;;3.27;1.53;;;;;;;;;;5042328;28;20451;-76
2023/04/11 08:31:32;;;;;;;4.93;1.80;;;;;;;;;;4960214;28;20501;-77
2023/04/11 08:33:59;;;;;;;9.00;1.83;;;;;;;;;;4997612;28;20441;-76
2023/04/11 08:36:28;;;;;;;4.30;1.57;;;;;;;;;;5036477;28;20474;-75
2023/04/11 08:38:56;;;;;;;3.70;1.53;;;;;;;;;;5043473;28;20458;-76
2023/04/11 08:41:23;;;;;;;6.27;1.77;;;;;;;;;;5045299;28;20480;-75
2023/04/11 08:43:51;;;;;;;5.63;1.60;;;;;;;;;;5045256;28;20442;-75
2023/04/11 08:46:20;;;;;;;2.13;1.50;;;;;;;;;;5044912;28;20478;-77
2023/04/11 08:48:51;;;;;;;5.47;1.90;;;;;;;;;;5045492;28;20438;-76
2023/04/11 08:51:24;;;;;;;2.63;1.97;;;;;;;;;;5043126;28;20849;-75
2023/04/11 08:54:31;;;;;;;2.73;1.40;;;;;;;;;;5039331;28;20454;-74
2023/04/11 08:57:13;;;;;;;3.73;1.73;;;;;;;;;;5027368;28;20482;-76
2023/04/11 08:59:49;;;;;;;5.23;1.40;;;;;;;;;;5036716;28;20470;-75
2023/04/11 09:02:22;;;;;;;3.10;1.40;;;;;;;;;;5033644;28;20446;-74
2023/04/11 09:08:05;;;;;;;5.40;1.70;;;;;;;;;;4972727;28;20501;-74
2023/04/11 09:10:35;;;;;;;3.63;1.67;;;;;;;;;;5028779;28;20455;-74
2023/04/11 09:13:14;;;;;;;3.20;1.43;;;;;;;;;;5030572;28;20474;-74
2023/04/11 09:15:46;;;;;;;3.77;1.80;;;;;;;;;;5031055;28;20871;-75
2023/04/11 09:18:36;;;;;;;1.80;1.50;;;;;;;;;;5033640;28;20537;-75
2023/04/11 09:21:08;;;;;;;1.83;1.40;;;;;;;;;;5033116;28;20541;-75
2023/04/11 09:23:41;;;;;;;4.50;1.70;;;;;;;;;;5033197;28;20505;-76
2023/04/11 09:26:11;;;;;;;3.97;1.70;;;;;;;;;;5033995;28;20478;-74
2023/04/11 09:28:52;;;;;;;4.80;1.70;;;;;;;;;;5033933;28;20455;-74
2023/04/11 09:31:23;;;;;;;3.53;1.90;;;;;;;;;;5033996;28;20508;-75
2023/04/11 09:33:58;;;;;;;5.43;1.60;;;;;;;;;;5032846;28;20461;-74
2023/04/11 09:36:29;;;;;;;1.70;1.43;;;;;;;;;;5034607;28;20450;-75
2023/04/11 09:38:58;;;;;;;2.50;1.67;;;;;;;;;;5034410;28;20625;-76
2023/04/11 09:41:37;;;;;;;3.13;1.40;;;;;;;;;;5034893;28;20454;-76
2023/04/11 09:44:15;;;;;;;5.50;1.63;;;;;;;;;;5038758;28;20437;-77
2023/04/11 09:47:00;;;;;;;4.37;2.03;;;;;;;;;;5033950;28;20478;-75
2023/04/11 09:49:36;;;;;;;4.53;1.70;;;;;;;;;;5034344;28;20460;-75
2023/04/11 09:52:06;;;;;;;4.27;1.90;;;;;;;;;;5034099;28;20478;-75
2023/04/11 09:54:47;;;;;;;2.20;1.57;;;;;;;;;;5033756;28;20483;-75
2023/04/11 09:57:23;;;;;;;3.40;1.57;;;;;;;;;;5034392;28;20478;-76
2023/04/11 10:00:00;;;;;;;1.90;1.30;;;;;;;;;;5033311;28;20454;-76
2023/04/11 10:02:37;;;;;;;3.60;1.37;;;;;;;;;;5033424;28;20522;-74
2023/04/11 10:05:12;;;;;;;2.37;1.60;;;;;;;;;;5033999;28;20435;-76
2023/04/11 10:07:54;;;;;;;3.43;1.47;;;;;;;;;;5033869;28;20464;-75
2023/04/11 10:10:24;;;;;;;2.63;1.80;;;;;;;;;;5039248;28;20407;-75
2023/04/11 10:12:55;;;;;;;1.70;1.60;;;;;;;;;;5038547;28;20586;-75
2023/04/11 10:15:28;;;;;;;3.80;1.60;;;;;;;;;;5037702;28;20431;-76
2023/04/11 10:18:13;;;;;;;5.10;1.67;;;;;;;;;;5037090;28;20477;-76
2023/04/11 10:20:49;;;;;;;2.30;1.57;;;;;;;;;;5037828;28;20441;-75
2023/04/11 10:23:24;;;;;;;1.97;1.27;;;;;;;;;;5035936;28;20450;-75
2023/04/11 10:26:00;;;;;;;3.07;1.60;;;;;;;;;;5044096;28;20528;-76
2023/04/11 10:28:43;;;;;;;5.13;2.37;;;;;;;;;;5056067;28;20457;-75
2023/04/11 10:31:17;;;;;;;2.70;1.60;;;;;;;;;;5056303;28;20957;-77
2023/04/11 10:37:18;;;;;;;2.53;1.70;;;;;;;;;;5054164;28;20477;-76
2023/04/11 10:40:09;;;;;;;3.67;1.67;;;;;;;;;;5056559;28;20449;-76
2023/04/11 10:42:41;;;;;;;2.80;1.93;;;;;;;;;;5056036;28;20452;-77
2023/04/11 10:45:28;;;;;;;3.00;1.30;;;;;;;;;;5037322;28;20442;-76
2023/04/11 10:48:12;;;;;;;;;;;;;;;;;;;;;
2023/04/11 10:50:43;;;;;;;4.27;1.90;;;;;;;;;;5053935;28;20441;-76
2023/04/11 10:53:37;;;;;;;1.97;1.80;;;;;;;;;;5052054;28;20477;-76
2023/04/11 10:56:11;;;;;;;2.17;1.70;;;;;;;;;;5053605;28;20505;-76
2023/04/11 10:58:48;;;;;;;3.87;1.70;;;;;;;;;;5054047;28;20458;-77
2023/04/11 11:01:19;;;;;;;4.40;1.77;;;;;;;;;;5054506;28;20441;-75
2023/04/11 11:03:59;;;;;;;5.13;1.70;;;;;;;;;;5055747;28;20450;-76
2023/04/11 11:06:45;;;;;;;2.50;1.67;;;;;;;;;;5055077;28;20504;-75
2023/04/11 11:09:24;;;;;;;3.50;1.20;;;;;;;;;;5054531;28;20453;-77
2023/04/11 11:12:17;;;;;;;2.87;1.50;;;;;;;;;;5055611;28;20449;-75
2023/04/11 11:14:53;;;;;;;6.53;1.60;;;;;;;;;;5058953;28;20460;-76
2023/04/11 11:17:37;;;;;;;2.57;1.50;;;;;;;;;;5063048;28;20813;-75
2023/04/11 11:20:08;;;;;;;3.70;1.50;;;;;;;;;;5043872;28;20443;-76
2023/04/11 11:22:39;;;;;;;4.50;1.50;;;;;;;;;;5044839;28;20504;-75
2023/04/11 11:25:33;;;;;;;2.13;1.53;;;;;;;;;;5046290;28;20447;-76
2023/04/11 11:28:22;;;;;;;1.83;1.50;;;;;;;;;;5044365;28;20458;-77
2023/04/11 11:30:56;;;;;;;4.43;1.77;;;;;;;;;;5047307;28;20485;-75
2023/04/11 11:33:31;;;;;;;1.50;1.40;;;;;;;;;;5044865;28;20506;-76
2023/04/11 11:36:02;;;;;;;3.10;1.63;;;;;;;;;;5046604;28;20484;-75
2023/04/11 11:38:36;;;;;;;2.03;1.30;;;;;;;;;;5049976;28;20869;-74
2023/04/11 11:41:16;;;;;;;2.53;1.60;;;;;;;;;;5049534;28;20459;-74
2023/04/11 11:43:56;;;;;;;3.00;1.70;;;;;;;;;;5047493;28;20450;-77
2023/04/11 11:46:37;;;;;;;3.43;1.60;;;;;;;;;;5044386;28;20501;-76
2023/04/11 11:49:13;;;;;;;3.33;1.43;;;;;;;;;;5043326;28;20450;-76
2023/04/11 11:51:50;;;;;;;4.73;2.07;;;;;;;;;;5039614;28;20435;-75
2023/04/11 11:54:25;;;;;;;5.73;1.60;;;;;;;;;;5038712;28;20446;-75
2023/04/11 11:57:05;;;;;;;4.27;1.70;;;;;;;;;;5039595;28;20485;-75
2023/04/11 11:59:33;;;;;;;2.83;1.60;;;;;;;;;;5040660;28;20455;-75
2023/04/11 12:02:02;;;;;;;4.10;1.87;;;;;;;;;;5040487;28;20512;-76
2023/04/11 12:04:31;;;;;;;2.07;1.40;;;;;;;;;;5039255;28;20451;-76
2023/04/11 12:07:24;;;;;;;2.90;1.73;;;;;;;;;;5037722;28;20474;-76
2023/04/11 12:10:05;;;;;;;3.63;1.73;;;;;;;;;;5036899;28;20452;-77
2023/04/11 12:12:41;;;;;;;4.33;1.90;;;;;;;;;;5037419;28;20478;-77
2023/04/11 12:15:13;;;;;;;3.90;1.50;;;;;;;;;;5037124;28;20457;-76
2023/04/11 12:17:52;;;;;;;3.13;1.50;;;;;;;;;;5043101;28;20477;-76
2023/04/11 12:23:38;;;;;;;3.23;1.60;;;;;;;;;;5042443;28;20432;-76
2023/04/11 12:26:16;;;;;;;2.53;1.50;;;;;;;;;;5061273;28;20474;-77
2023/04/11 12:29:23;;;;;;;2.30;1.50;;;;;;;;;;5061909;28;20456;-76
2023/04/11 12:32:07;;;;;;;2.20;1.43;;;;;;;;;;5061581;28;20449;-76
2023/04/11 12:34:43;;;;;;;2.93;1.80;;;;;;;;;;5051190;28;20512;-77
2023/04/11 12:37:47;;;;;;;1.83;1.33;;;;;;;;;;5059237;28;20461;-76
2023/04/11 12:40:15;;;;;;;3.60;1.50;;;;;;;;;;5057951;28;20461;-75
2023/04/11 12:42:47;;;;;;;1.97;1.50;;;;;;;;;;5060935;28;20504;-77
2023/04/11 12:45:16;;;;;;;4.33;1.57;;;;;;;;;;5058968;28;20454;-76
2023/04/11 12:47:45;;;;;;;4.00;1.60;;;;;;;;;;5058763;28;20520;-75
2023/04/11 12:50:16;;;;;;;3.83;1.07;;;;;;;;;;5059188;28;20450;-76
2023/04/11 12:52:47;;;;;;;2.80;1.60;;;;;;;;;;5063066;28;20545;-75
2023/04/11 12:55:16;;;;;;;3.60;2.07;;;;;;;;;;5063526;28;20461;-75
2023/04/11 12:57:47;;;;;;;2.70;1.83;;;;;;;;;;5062701;28;20493;-76
2023/04/11 13:00:23;;;;;;;5.33;1.60;;;;;;;;;;5063359;28;20450;-77
2023/04/11 13:02:50;;;;;;;2.33;2.10;;;;;;;;;;5063797;28;20453;-76
2023/04/11 13:05:23;;;;;;;5.13;1.53;;;;;;;;;;5063759;28;20438;-76
2023/04/11 13:07:53;;;;;;;7.03;1.70;;;;;;;;;;5064681;28;20836;-76
2023/04/11 13:10:29;;;;;;;3.87;1.80;;;;;;;;;;5068131;28;20422;-75
2023/04/11 13:12:58;;;;;;;2.83;1.37;;;;;;;;;;5066310;28;20465;-76
2023/04/11 13:15:30;;;;;;;3.47;1.37;;;;;;;;;;5061298;28;20476;-76
2023/04/11 13:17:58;;;;;;;4.10;1.20;;;;;;;;;;5053228;28;20465;-77
2023/04/11 13:20:27;;;;;;;2.83;1.37;;;;;;;;;;5038391;28;20454;-76
2023/04/11 13:22:56;;;;;;;6.43;1.87;;;;;;;;;;5040783;28;20449;-75
2023/04/11 13:25:24;;;;;;;2.80;1.47;;;;;;;;;;5042173;28;20455;-75
2023/04/11 13:27:53;;;;;;;3.57;1.23;;;;;;;;;;5039576;28;20454;-76
2023/04/11 13:30:21;;;;;;;2.83;1.47;;;;;;;;;;5039518;28;20434;-77
2023/04/11 13:32:53;;;;;;;3.53;1.67;;;;;;;;;;5038765;28;20505;-76
2023/04/11 13:35:21;;;;;;;3.30;1.80;;;;;;;;;;5038862;28;20447;-76
2023/04/11 13:37:50;;;;;;;2.10;1.57;;;;;;;;;;5037814;28;20481;-75
2023/04/11 13:40:20;;;;;;;4.80;1.70;;;;;;;;;;5036269;28;20565;-75
2023/04/11 13:42:53;;;;;;;4.60;1.80;;;;;;;;;;5034516;28;20468;-76
2023/04/11 13:45:22;;;;;;;4.00;1.90;;;;;;;;;;5036436;28;20500;-75
2023/04/11 13:48:04;;;;;;;2.77;1.73;;;;;;;;;;5037271;28;20458;-76
2023/04/11 13:50:36;;;;;;;3.23;1.37;;;;;;;;;;5036480;28;20508;-75
2023/04/11 13:53:12;;;;;;;2.63;1.57;;;;;;;;;;5036488;28;20472;-77
2023/04/11 13:55:54;;;;;;;3.50;2.27;;;;;;;;;;5038848;28;20529;-76
2023/04/11 13:58:25;;;;;;;2.87;1.50;;;;;;;;;;5036997;28;20465;-75
2023/04/11 14:00:56;;;;;;;5.90;2.03;;;;;;;;;;5035513;28;21011;-77
2023/04/11 14:03:28;;;;;;;2.10;1.40;;;;;;;;;;5034648;28;20885;-77
2023/04/11 14:06:00;;;;;;;3.73;1.50;;;;;;;;;;5034913;28;20478;-76
2023/04/11 14:08:32;;;;;;;2.40;1.30;;;;;;;;;;5036678;28;20458;-75
2023/04/11 14:11:04;;;;;;;6.13;1.93;;;;;;;;;;5037074;28;20498;-77
2023/04/11 14:13:35;;;;;;;4.40;1.50;;;;;;;;;;5037065;28;20567;-77
2023/04/11 14:16:04;;;;;;;8.10;1.50;;;;;;;;;;5035720;28;20480;-76
2023/04/11 14:18:36;;;;;;;2.10;1.27;;;;;;;;;;5035735;28;20519;-76
2023/04/11 14:21:06;;;;;;;1.80;1.50;;;;;;;;;;5036605;28;20488;-77
2023/04/11 14:23:38;;;;;;;2.10;1.30;;;;;;;;;;5035663;28;20489;-76
2023/04/11 14:28:52;;;;;;;2.87;1.43;;;;;;;;;;5034856;28;20504;-76
2023/04/11 14:31:24;;;;;;;2.00;1.37;;;;;;;;;;5036620;28;20833;-77
2023/04/11 14:33:58;;;;;;;2.63;1.20;;;;;;;;;;5037084;28;20478;-76
2023/04/11 14:36:27;;;;;;;3.60;1.33;;;;;;;;;;5020639;28;20870;-76
2023/04/11 14:38:57;;;;;;;6.97;1.50;;;;;;;;;;5035590;28;20558;-75
2023/04/11 14:41:29;;;;;;;2.33;1.30;;;;;;;;;;5036150;28;20861;-76
2023/04/11 14:46:48;;;;;;;1.60;1.00;;;;;;;;;;5037635;28;20497;-77
2023/04/11 14:49:21;;;;;;;2.30;1.47;;;;;;;;;;5037988;28;20454;-76
2023/04/11 14:52:03;;;;;;;2.20;1.63;;;;;;;;;;5037963;28;20450;-75
2023/04/11 14:54:32;;;;;;;2.00;1.40;;;;;;;;;;5037299;28;20990;-77
2023/04/11 14:57:16;;;;;;;1.30;1.20;;;;;;;;;;5038155;28;20455;-77
2023/04/11 14:59:55;;;;;;;6.73;1.47;;;;;;;;;;5020149;28;20466;-76
2023/04/11 15:02:25;;;;;;;2.63;1.53;;;;;;;;;;5039266;28;20451;-77
2023/04/11 15:05:12;;;;;;;4.10;1.73;;;;;;;;;;5040765;28;20514;-76
2023/04/11 15:07:50;;;;;;;2.57;1.10;;;;;;;;;;5037542;28;20498;-76
2023/04/11 15:10:45;;;;;;;3.37;1.40;;;;;;;;;;5039021;28;20446;-77
2023/04/11 15:13:20;;;;;;;2.93;1.30;;;;;;;;;;5039572;28;20478;-77
2023/04/11 15:16:00;;;;;;;3.10;1.53;;;;;;;;;;5038547;28;20466;-76
2023/04/11 15:18:34;;;;;;;4.73;1.77;;;;;;;;;;5038530;28;20528;-77
2023/04/11 15:21:11;;;;;;;4.03;1.40;;;;;;;;;;5039204;28;20472;-77
2023/04/11 15:23:52;;;;;;;2.57;1.33;;;;;;;;;;5038652;28;20458;-76
2023/04/11 15:26:24;;;;;;;2.90;1.43;;;;;;;;;;5039568;28;20466;-77
2023/04/11 15:31:50;;;;;;;3.80;1.27;;;;;;;;;;5038177;28;20457;-77
2023/04/11 15:34:45;;;;;;;2.93;2.10;;;;;;;;;;5040093;28;20470;-77
2023/04/11 15:37:30;;;;;;;2.30;1.40;;;;;;;;;;5039143;28;20475;-76
2023/04/11 15:43:31;;;;;;;4.53;2.10;;;;;;;;;;4928214;28;20890;-77
2023/04/11 15:46:47;;;;;;;2.77;1.60;;;;;;;;;;4965302;28;20462;-76
2023/04/11 15:52:15;;;;;;;1.90;1.10;;;;;;;;;;5036107;28;20446;-75
2023/04/11 15:55:15;;;;;;;2.30;1.47;;;;;;;;;;5042415;28;20621;-76
2023/04/11 15:58:21;;;;;;;2.37;1.40;;;;;;;;;;5041525;28;20477;-76
2023/04/11 16:00:53;;;;;;;2.03;1.30;;;;;;;;;;5032432;28;20524;-77
2023/04/11 16:03:32;;;;;;;2.50;1.47;;;;;;;;;;5037374;28;20565;-77
2023/04/11 16:06:02;;;;;;;2.00;1.30;;;;;;;;;;5036441;28;20474;-77
2023/04/11 16:08:30;;;;;;;1.90;1.40;;;;;;;;;;5036112;28;20544;-77
2023/04/11 16:10:58;;;;;;;3.20;1.47;;;;;;;;;;5035056;28;20527;-77
2023/04/11 16:13:32;;;;;;;3.83;1.50;;;;;;;;;;5036931;28;20439;-76
2023/04/11 16:16:00;;;;;;;3.73;1.70;;;;;;;;;;5038497;28;20451;-76
2023/04/11 16:18:38;;;;;;;4.73;1.97;;;;;;;;;;5048114;28;20453;-77
2023/04/11 16:21:15;;;;;;;3.00;1.50;;;;;;;;;;5056086;28;20437;-77
2023/04/11 16:23:44;;;;;;;2.20;1.37;;;;;;;;;;5057323;28;20449;-77
2023/04/11 16:26:12;;;;;;;2.27;2.00;;;;;;;;;;5053249;28;20516;-77
2023/04/11 16:28:40;;;;;;;3.63;1.63;;;;;;;;;;5054952;28;20468;-76
2023/04/11 16:31:09;;;;;;;4.40;1.97;;;;;;;;;;5056412;28;20480;-77
2023/04/11 16:33:43;;;;;;;2.20;1.40;;;;;;;;;;5054476;28;20484;-77
2023/04/11 16:36:28;;;;;;;2.77;1.50;;;;;;;;;;5056457;28;20488;-76